Back to Top

Language: 

My Weather Underground Personal Weather Station Historical Data with Graphs...

Delerius Weather Station Historical Data
Daily Summary for January 25, 2018 Units:  Both    English   Metric
« Previous Day
Next Day »
Daily Weekly Monthly Yearly Custom
  High: Low: Average:
Temperature: 47.1 °F /  8.4 °C 35.2 °F /  1.8 °C 42.7 °F /  5.9 °C
Dew Point: 39.6 °F /  4.2 °C 33.1 °F /  0.6 °C 37.9 °F /  3.3 °C
Humidity: 93 % 73 % 83 %
Wind Speed: 18.0 mph /  29 km/h - 8.3 mph /  13.4 km/h
Wind Gust: 31.0 mph /  49.9 km/h - -
Wind:- - SW
Pressure: 29.75 in /  1007.3 hPa 29.55 in /  1000.6 hPa -
Precipitation: 0.01 in /  0.25 mm    
Historical Graphs
 
 
Tabular Data for January 25, 2018
Time Temperature Dew Point Pressure Wind Wind Speed Wind Gust Humidity Rainfall Rate (Hourly) solar Conditions
00:00 43.3 °F /  6.3 °C 38.2 °F /  3.4 °C 29.55 in /  1000.6 hPa SW 16.0 mph /  25.7 km/h 24.0 mph /  38.6 km/h 82 % 0.00 in /  0 mm 0 W/m2
00:05 43.3 °F /  6.3 °C 38.2 °F /  3.4 °C 29.56 in /  1000.9 hPa WSW 14.0 mph /  22.5 km/h 23.0 mph /  37 km/h 82 % 0.00 in /  0 mm 0 W/m2
00:10 43.3 °F /  6.3 °C 38.2 °F /  3.4 °C 29.55 in /  1000.6 hPa SW 14.0 mph /  22.5 km/h 20.0 mph /  32.2 km/h 82 % 0.00 in /  0 mm 0 W/m2
00:15 43.3 °F /  6.3 °C 38.5 °F /  3.6 °C 29.56 in /  1000.9 hPa SW 11.0 mph /  17.7 km/h 14.0 mph /  22.5 km/h 83 % 0.00 in /  0 mm 0 W/m2
00:20 43.3 °F /  6.3 °C 38.5 °F /  3.6 °C 29.56 in /  1000.9 hPa SW 15.0 mph /  24.1 km/h 23.0 mph /  37 km/h 83 % 0.00 in /  0 mm 0 W/m2
00:25 43.3 °F /  6.3 °C 38.5 °F /  3.6 °C 29.55 in /  1000.6 hPa SW 13.0 mph /  20.9 km/h 21.0 mph /  33.8 km/h 83 % 0.00 in /  0 mm 0 W/m2
00:30 43.3 °F /  6.3 °C 38.5 °F /  3.6 °C 29.55 in /  1000.6 hPa SW 10.0 mph /  16.1 km/h 16.0 mph /  25.7 km/h 83 % 0.00 in /  0 mm 0 W/m2
00:35 43.2 °F /  6.2 °C 38.3 °F /  3.5 °C 29.55 in /  1000.6 hPa SW 13.0 mph /  20.9 km/h 19.0 mph /  30.6 km/h 83 % 0.00 in /  0 mm 0 W/m2
00:40 43.2 °F /  6.2 °C 38.3 °F /  3.5 °C 29.56 in /  1000.9 hPa SW 13.0 mph /  20.9 km/h 20.0 mph /  32.2 km/h 83 % 0.00 in /  0 mm 0 W/m2
00:45 43.3 °F /  6.3 °C 38.5 °F /  3.6 °C 29.56 in /  1000.9 hPa SW 15.0 mph /  24.1 km/h 24.0 mph /  38.6 km/h 83 % 0.00 in /  0 mm 0 W/m2
00:50 43.3 °F /  6.3 °C 38.2 °F /  3.4 °C 29.56 in /  1000.9 hPa SW 13.0 mph /  20.9 km/h 16.0 mph /  25.7 km/h 82 % 0.00 in /  0 mm 0 W/m2
00:55 43.5 °F /  6.4 °C 38.4 °F /  3.6 °C 29.56 in /  1000.9 hPa WSW 15.0 mph /  24.1 km/h 23.0 mph /  37 km/h 82 % 0.00 in /  0 mm 0 W/m2
01:00 43.5 °F /  6.4 °C 38.4 °F /  3.6 °C 29.56 in /  1000.9 hPa SW 13.0 mph /  20.9 km/h 21.0 mph /  33.8 km/h 82 % 0.00 in /  0 mm 0 W/m2
01:06 43.5 °F /  6.4 °C 38.4 °F /  3.6 °C 29.56 in /  1000.9 hPa SW 14.0 mph /  22.5 km/h 25.0 mph /  40.2 km/h 82 % 0.00 in /  0 mm 0 W/m2
01:11 43.5 °F /  6.4 °C 38.7 °F /  3.7 °C 29.56 in /  1000.9 hPa SW 15.0 mph /  24.1 km/h 22.0 mph /  35.4 km/h 83 % 0.00 in /  0 mm 0 W/m2
01:15 43.3 °F /  6.3 °C 38.8 °F /  3.8 °C 29.56 in /  1000.9 hPa SW 17.0 mph /  27.4 km/h 31.0 mph /  49.9 km/h 84 % 0.00 in /  0 mm 0 W/m2
01:21 43.5 °F /  6.4 °C 39.0 °F /  3.9 °C 29.57 in /  1001.2 hPa SW 17.0 mph /  27.4 km/h 27.0 mph /  43.5 km/h 84 % 0.00 in /  0 mm 0 W/m2
01:26 43.5 °F /  6.4 °C 39.0 °F /  3.9 °C 29.57 in /  1001.2 hPa WSW 17.0 mph /  27.4 km/h 26.0 mph /  41.8 km/h 84 % 0.00 in /  0 mm 0 W/m2
01:31 43.5 °F /  6.4 °C 39.0 °F /  3.9 °C 29.57 in /  1001.2 hPa WSW 14.0 mph /  22.5 km/h 24.0 mph /  38.6 km/h 84 % 0.00 in /  0 mm 0 W/m2
01:36 43.5 °F /  6.4 °C 38.7 °F /  3.7 °C 29.58 in /  1001.6 hPa SW 13.0 mph /  20.9 km/h 21.0 mph /  33.8 km/h 83 % 0.00 in /  0 mm 0 W/m2
01:41 43.3 °F /  6.3 °C 38.5 °F /  3.6 °C 29.57 in /  1001.2 hPa SW 14.0 mph /  22.5 km/h 25.0 mph /  40.2 km/h 83 % 0.01 in /  0.25 mm 0 W/m2
01:46 43.0 °F /  6.1 °C 38.5 °F /  3.6 °C 29.56 in /  1000.9 hPa WSW 12.0 mph /  19.3 km/h 20.0 mph /  32.2 km/h 84 % 0.01 in /  0.25 mm 0 W/m2
01:51 42.6 °F /  5.9 °C 38.1 °F /  3.4 °C 29.56 in /  1000.9 hPa SW 12.0 mph /  19.3 km/h 19.0 mph /  30.6 km/h 84 % 0.01 in /  0.25 mm 0 W/m2
01:56 42.6 °F /  5.9 °C 38.1 °F /  3.4 °C 29.56 in /  1000.9 hPa WSW 15.0 mph /  24.1 km/h 22.0 mph /  35.4 km/h 84 % 0.01 in /  0.25 mm 0 W/m2
02:01 42.6 °F /  5.9 °C 38.1 °F /  3.4 °C 29.56 in /  1000.9 hPa WSW 12.0 mph /  19.3 km/h 19.0 mph /  30.6 km/h 84 % 0.01 in /  0.25 mm 0 W/m2
02:06 42.4 °F /  5.8 °C 37.9 °F /  3.3 °C 29.56 in /  1000.9 hPa WSW 13.0 mph /  20.9 km/h 23.0 mph /  37 km/h 84 % 0.01 in /  0.25 mm 0 W/m2
02:11 42.4 °F /  5.8 °C 37.9 °F /  3.3 °C 29.56 in /  1000.9 hPa SW 11.0 mph /  17.7 km/h 16.0 mph /  25.7 km/h 84 % 0.01 in /  0.25 mm 0 W/m2
02:16 42.4 °F /  5.8 °C 37.9 °F /  3.3 °C 29.56 in /  1000.9 hPa WSW 11.0 mph /  17.7 km/h 20.0 mph /  32.2 km/h 84 % 0.01 in /  0.25 mm 0 W/m2
02:21 42.4 °F /  5.8 °C 37.9 °F /  3.3 °C 29.56 in /  1000.9 hPa WSW 13.0 mph /  20.9 km/h 24.0 mph /  38.6 km/h 84 % 0.01 in /  0.25 mm 0 W/m2
02:26 42.4 °F /  5.8 °C 37.9 °F /  3.3 °C 29.56 in /  1000.9 hPa SW 13.0 mph /  20.9 km/h 20.0 mph /  32.2 km/h 84 % 0.01 in /  0.25 mm 0 W/m2
02:31 42.4 °F /  5.8 °C 37.9 °F /  3.3 °C 29.56 in /  1000.9 hPa WSW 13.0 mph /  20.9 km/h 21.0 mph /  33.8 km/h 84 % 0.01 in /  0.25 mm 0 W/m2
02:36 42.4 °F /  5.8 °C 37.9 °F /  3.3 °C 29.56 in /  1000.9 hPa SW 13.0 mph /  20.9 km/h 27.0 mph /  43.5 km/h 84 % 0.01 in /  0.25 mm 0 W/m2
02:41 42.4 °F /  5.8 °C 37.9 °F /  3.3 °C 29.56 in /  1000.9 hPa SW 13.0 mph /  20.9 km/h 21.0 mph /  33.8 km/h 84 % 0.00 in /  0 mm 0 W/m2
02:46 42.6 °F /  5.9 °C 37.8 °F /  3.2 °C 29.56 in /  1000.9 hPa WSW 16.0 mph /  25.7 km/h 24.0 mph /  38.6 km/h 83 % 0.00 in /  0 mm 0 W/m2
02:51 42.8 °F /  6 °C 38.0 °F /  3.3 °C 29.56 in /  1000.9 hPa SW 15.0 mph /  24.1 km/h 22.0 mph /  35.4 km/h 83 % 0.00 in /  0 mm 0 W/m2
02:56 43.0 °F /  6.1 °C 37.9 °F /  3.3 °C 29.56 in /  1000.9 hPa SW 13.0 mph /  20.9 km/h 25.0 mph /  40.2 km/h 82 % 0.00 in /  0 mm 0 W/m2
03:01 43.0 °F /  6.1 °C 37.9 °F /  3.3 °C 29.56 in /  1000.9 hPa WSW 13.0 mph /  20.9 km/h 21.0 mph /  33.8 km/h 82 % 0.00 in /  0 mm 0 W/m2
03:06 43.0 °F /  6.1 °C 37.9 °F /  3.3 °C 29.57 in /  1001.2 hPa WSW 14.0 mph /  22.5 km/h 21.0 mph /  33.8 km/h 82 % 0.00 in /  0 mm 0 W/m2
03:11 43.2 °F /  6.2 °C 37.7 °F /  3.2 °C 29.57 in /  1001.2 hPa WSW 15.0 mph /  24.1 km/h 24.0 mph /  38.6 km/h 81 % 0.00 in /  0 mm 0 W/m2
03:16 43.3 °F /  6.3 °C 37.9 °F /  3.3 °C 29.57 in /  1001.2 hPa WSW 12.0 mph /  19.3 km/h 21.0 mph /  33.8 km/h 81 % 0.00 in /  0 mm 0 W/m2
03:21 43.3 °F /  6.3 °C 37.9 °F /  3.3 °C 29.57 in /  1001.2 hPa WSW 16.0 mph /  25.7 km/h 26.0 mph /  41.8 km/h 81 % 0.00 in /  0 mm 0 W/m2
03:26 43.3 °F /  6.3 °C 37.9 °F /  3.3 °C 29.56 in /  1000.9 hPa WSW 13.0 mph /  20.9 km/h 24.0 mph /  38.6 km/h 81 % 0.00 in /  0 mm 0 W/m2
03:31 43.2 °F /  6.2 °C 37.7 °F /  3.2 °C 29.56 in /  1000.9 hPa SW 9.0 mph /  14.5 km/h 15.0 mph /  24.1 km/h 81 % 0.00 in /  0 mm 0 W/m2
03:36 43.0 °F /  6.1 °C 37.5 °F /  3.1 °C 29.56 in /  1000.9 hPa SW 10.0 mph /  16.1 km/h 16.0 mph /  25.7 km/h 81 % 0.00 in /  0 mm 0 W/m2
03:41 43.0 °F /  6.1 °C 37.9 °F /  3.3 °C 29.56 in /  1000.9 hPa SW 13.0 mph /  20.9 km/h 19.0 mph /  30.6 km/h 82 % 0.00 in /  0 mm 0 W/m2
03:46 43.0 °F /  6.1 °C 37.9 °F /  3.3 °C 29.56 in /  1000.9 hPa WSW 12.0 mph /  19.3 km/h 20.0 mph /  32.2 km/h 82 % 0.00 in /  0 mm 0 W/m2
03:51 43.0 °F /  6.1 °C 37.9 °F /  3.3 °C 29.56 in /  1000.9 hPa WSW 14.0 mph /  22.5 km/h 22.0 mph /  35.4 km/h 82 % 0.00 in /  0 mm 0 W/m2
03:56 43.2 °F /  6.2 °C 38.3 °F /  3.5 °C 29.56 in /  1000.9 hPa SW 15.0 mph /  24.1 km/h 24.0 mph /  38.6 km/h 83 % 0.00 in /  0 mm 0 W/m2
04:01 43.3 °F /  6.3 °C 38.2 °F /  3.4 °C 29.56 in /  1000.9 hPa SW 17.0 mph /  27.4 km/h 24.0 mph /  38.6 km/h 82 % 0.00 in /  0 mm 0 W/m2
04:06 43.3 °F /  6.3 °C 38.2 °F /  3.4 °C 29.56 in /  1000.9 hPa SW 13.0 mph /  20.9 km/h 21.0 mph /  33.8 km/h 82 % 0.00 in /  0 mm 0 W/m2
04:11 43.5 °F /  6.4 °C 38.4 °F /  3.6 °C 29.56 in /  1000.9 hPa SW 16.0 mph /  25.7 km/h 26.0 mph /  41.8 km/h 82 % 0.00 in /  0 mm 0 W/m2
04:16 43.5 °F /  6.4 °C 38.1 °F /  3.4 °C 29.56 in /  1000.9 hPa SW 15.0 mph /  24.1 km/h 22.0 mph /  35.4 km/h 81 % 0.00 in /  0 mm 0 W/m2
04:21 43.5 °F /  6.4 °C 37.8 °F /  3.2 °C 29.56 in /  1000.9 hPa SW 13.0 mph /  20.9 km/h 19.0 mph /  30.6 km/h 80 % 0.00 in /  0 mm 0 W/m2
04:26 43.3 °F /  6.3 °C 37.9 °F /  3.3 °C 29.56 in /  1000.9 hPa SW 13.0 mph /  20.9 km/h 22.0 mph /  35.4 km/h 81 % 0.00 in /  0 mm 0 W/m2
04:31 43.3 °F /  6.3 °C 38.2 °F /  3.4 °C 29.56 in /  1000.9 hPa SW 15.0 mph /  24.1 km/h 25.0 mph /  40.2 km/h 82 % 0.00 in /  0 mm 0 W/m2
04:36 43.2 °F /  6.2 °C 38.0 °F /  3.3 °C 29.56 in /  1000.9 hPa SW 14.0 mph /  22.5 km/h 20.0 mph /  32.2 km/h 82 % 0.00 in /  0 mm 0 W/m2
04:41 43.2 °F /  6.2 °C 38.0 °F /  3.3 °C 29.56 in /  1000.9 hPa SW 12.0 mph /  19.3 km/h 21.0 mph /  33.8 km/h 82 % 0.00 in /  0 mm 0 W/m2
04:46 43.0 °F /  6.1 °C 37.9 °F /  3.3 °C 29.56 in /  1000.9 hPa SW 13.0 mph /  20.9 km/h 21.0 mph /  33.8 km/h 82 % 0.00 in /  0 mm 0 W/m2
04:51 43.0 °F /  6.1 °C 37.9 °F /  3.3 °C 29.56 in /  1000.9 hPa SW 12.0 mph /  19.3 km/h 20.0 mph /  32.2 km/h 82 % 0.00 in /  0 mm 0 W/m2
04:56 42.8 °F /  6 °C 37.7 °F /  3.2 °C 29.56 in /  1000.9 hPa SW 11.0 mph /  17.7 km/h 20.0 mph /  32.2 km/h 82 % 0.00 in /  0 mm 0 W/m2
05:01 42.6 °F /  5.9 °C 37.5 °F /  3.1 °C 29.56 in /  1000.9 hPa SW 12.0 mph /  19.3 km/h 20.0 mph /  32.2 km/h 82 % 0.00 in /  0 mm 0 W/m2
05:06 42.6 °F /  5.9 °C 37.5 °F /  3.1 °C 29.57 in /  1001.2 hPa SW 12.0 mph /  19.3 km/h 19.0 mph /  30.6 km/h 82 % 0.00 in /  0 mm 0 W/m2
05:11 42.4 °F /  5.8 °C 37.3 °F /  2.9 °C 29.57 in /  1001.2 hPa SW 11.0 mph /  17.7 km/h 16.0 mph /  25.7 km/h 82 % 0.00 in /  0 mm 0 W/m2
05:16 42.4 °F /  5.8 °C 37.3 °F /  2.9 °C 29.57 in /  1001.2 hPa WSW 12.0 mph /  19.3 km/h 21.0 mph /  33.8 km/h 82 % 0.00 in /  0 mm 0 W/m2
05:21 42.3 °F /  5.7 °C 37.2 °F /  2.9 °C 29.57 in /  1001.2 hPa WSW 13.0 mph /  20.9 km/h 21.0 mph /  33.8 km/h 82 % 0.00 in /  0 mm 0 W/m2
05:26 42.3 °F /  5.7 °C 37.5 °F /  3.1 °C 29.57 in /  1001.2 hPa WSW 15.0 mph /  24.1 km/h 21.0 mph /  33.8 km/h 83 % 0.00 in /  0 mm 0 W/m2
05:31 42.3 °F /  5.7 °C 37.5 °F /  3.1 °C 29.57 in /  1001.2 hPa SW 14.0 mph /  22.5 km/h 21.0 mph /  33.8 km/h 83 % 0.00 in /  0 mm 0 W/m2
05:36 42.3 °F /  5.7 °C 37.5 °F /  3.1 °C 29.58 in /  1001.6 hPa WSW 12.0 mph /  19.3 km/h 20.0 mph /  32.2 km/h 83 % 0.00 in /  0 mm 0 W/m2
05:41 42.3 °F /  5.7 °C 37.8 °F /  3.2 °C 29.58 in /  1001.6 hPa SW 11.0 mph /  17.7 km/h 16.0 mph /  25.7 km/h 84 % 0.00 in /  0 mm 0 W/m2
05:46 42.3 °F /  5.7 °C 37.8 °F /  3.2 °C 29.57 in /  1001.2 hPa SW 10.0 mph /  16.1 km/h 14.0 mph /  22.5 km/h 84 % 0.00 in /  0 mm 0 W/m2
05:52 42.1 °F /  5.6 °C 37.6 °F /  3.1 °C 29.58 in /  1001.6 hPa SW 8.0 mph /  12.9 km/h 12.0 mph /  19.3 km/h 84 % 0.00 in /  0 mm 0 W/m2
05:56 42.1 °F /  5.6 °C 37.6 °F /  3.1 °C 29.58 in /  1001.6 hPa SW 7.0 mph /  11.3 km/h 12.0 mph /  19.3 km/h 84 % 0.00 in /  0 mm 0 W/m2
06:02 42.1 °F /  5.6 °C 37.6 °F /  3.1 °C 29.58 in /  1001.6 hPa SW 7.0 mph /  11.3 km/h 10.0 mph /  16.1 km/h 84 % 0.00 in /  0 mm 0 W/m2
06:07 41.9 °F /  5.5 °C 37.4 °F /  3 °C 29.58 in /  1001.6 hPa SW 8.0 mph /  12.9 km/h 12.0 mph /  19.3 km/h 84 % 0.00 in /  0 mm 0 W/m2
06:12 41.9 °F /  5.5 °C 37.4 °F /  3 °C 29.58 in /  1001.6 hPa SW 9.0 mph /  14.5 km/h 12.0 mph /  19.3 km/h 84 % 0.00 in /  0 mm 0 W/m2
06:17 41.9 °F /  5.5 °C 37.4 °F /  3 °C 29.58 in /  1001.6 hPa SW 9.0 mph /  14.5 km/h 14.0 mph /  22.5 km/h 84 % 0.00 in /  0 mm 0 W/m2
06:22 41.9 °F /  5.5 °C 37.4 °F /  3 °C 29.58 in /  1001.6 hPa SW 9.0 mph /  14.5 km/h 18.0 mph /  29 km/h 84 % 0.00 in /  0 mm 0 W/m2
06:27 41.9 °F /  5.5 °C 37.4 °F /  3 °C 29.58 in /  1001.6 hPa SW 9.0 mph /  14.5 km/h 16.0 mph /  25.7 km/h 84 % 0.00 in /  0 mm 0 W/m2
06:32 41.7 °F /  5.4 °C 37.2 °F /  2.9 °C 29.58 in /  1001.6 hPa SW 11.0 mph /  17.7 km/h 18.0 mph /  29 km/h 84 % 0.00 in /  0 mm 0 W/m2
06:37 41.7 °F /  5.4 °C 36.9 °F /  2.7 °C 29.58 in /  1001.6 hPa SW 13.0 mph /  20.9 km/h 19.0 mph /  30.6 km/h 83 % 0.00 in /  0 mm 0 W/m2
06:42 41.7 °F /  5.4 °C 36.9 °F /  2.7 °C 29.58 in /  1001.6 hPa SW 11.0 mph /  17.7 km/h 20.0 mph /  32.2 km/h 83 % 0.00 in /  0 mm 0 W/m2
06:47 41.7 °F /  5.4 °C 36.9 °F /  2.7 °C 29.58 in /  1001.6 hPa SW 12.0 mph /  19.3 km/h 20.0 mph /  32.2 km/h 83 % 0.00 in /  0 mm 0 W/m2
06:52 41.5 °F /  5.3 °C 36.8 °F /  2.7 °C 29.57 in /  1001.2 hPa SW 12.0 mph /  19.3 km/h 20.0 mph /  32.2 km/h 83 % 0.00 in /  0 mm 0 W/m2
06:57 41.5 °F /  5.3 °C 36.8 °F /  2.7 °C 29.58 in /  1001.6 hPa SW 13.0 mph /  20.9 km/h 18.0 mph /  29 km/h 83 % 0.00 in /  0 mm 0 W/m2
07:02 41.5 °F /  5.3 °C 36.8 °F /  2.7 °C 29.58 in /  1001.6 hPa SW 11.0 mph /  17.7 km/h 16.0 mph /  25.7 km/h 83 % 0.00 in /  0 mm 0 W/m2
07:07 41.5 °F /  5.3 °C 36.8 °F /  2.7 °C 29.58 in /  1001.6 hPa SW 9.0 mph /  14.5 km/h 15.0 mph /  24.1 km/h 83 % 0.00 in /  0 mm 0 W/m2
07:12 41.4 °F /  5.2 °C 36.6 °F /  2.6 °C 29.58 in /  1001.6 hPa SW 12.0 mph /  19.3 km/h 18.0 mph /  29 km/h 83 % 0.00 in /  0 mm 0 W/m2
07:17 41.4 °F /  5.2 °C 36.6 °F /  2.6 °C 29.58 in /  1001.6 hPa SW 10.0 mph /  16.1 km/h 19.0 mph /  30.6 km/h 83 % 0.00 in /  0 mm 0 W/m2
07:22 41.4 °F /  5.2 °C 36.6 °F /  2.6 °C 29.58 in /  1001.6 hPa SW 9.0 mph /  14.5 km/h 18.0 mph /  29 km/h 83 % 0.00 in /  0 mm 0 W/m2
07:27 41.4 °F /  5.2 °C 36.9 °F /  2.7 °C 29.58 in /  1001.6 hPa SW 10.0 mph /  16.1 km/h 19.0 mph /  30.6 km/h 84 % 0.00 in /  0 mm 0 W/m2
07:32 41.5 °F /  5.3 °C 36.8 °F /  2.7 °C 29.58 in /  1001.6 hPa SW 9.0 mph /  14.5 km/h 14.0 mph /  22.5 km/h 83 % 0.00 in /  0 mm 0 W/m2
07:37 41.4 °F /  5.2 °C 36.9 °F /  2.7 °C 29.58 in /  1001.6 hPa SW 12.0 mph /  19.3 km/h 21.0 mph /  33.8 km/h 84 % 0.00 in /  0 mm 0 W/m2
07:42 41.4 °F /  5.2 °C 36.9 °F /  2.7 °C 29.58 in /  1001.6 hPa SW 7.0 mph /  11.3 km/h 13.0 mph /  20.9 km/h 84 % 0.00 in /  0 mm 0 W/m2
07:47 41.2 °F /  5.1 °C 36.7 °F /  2.6 °C 29.58 in /  1001.6 hPa SW 8.0 mph /  12.9 km/h 11.0 mph /  17.7 km/h 84 % 0.00 in /  0 mm 0 W/m2
07:52 41.0 °F /  5 °C 36.5 °F /  2.5 °C 29.58 in /  1001.6 hPa SW 6.0 mph /  9.7 km/h 12.0 mph /  19.3 km/h 84 % 0.00 in /  0 mm 0 W/m2
07:57 40.8 °F /  4.9 °C 36.7 °F /  2.6 °C 29.58 in /  1001.6 hPa SSW 9.0 mph /  14.5 km/h 15.0 mph /  24.1 km/h 85 % 0.00 in /  0 mm 0 W/m2
08:02 40.8 °F /  4.9 °C 36.7 °F /  2.6 °C 29.58 in /  1001.6 hPa SW 7.0 mph /  11.3 km/h 14.0 mph /  22.5 km/h 85 % 0.00 in /  0 mm 5 W/m2
08:07 40.8 °F /  4.9 °C 36.7 °F /  2.6 °C 29.58 in /  1001.6 hPa SW 10.0 mph /  16.1 km/h 15.0 mph /  24.1 km/h 85 % 0.00 in /  0 mm 7 W/m2
08:12 40.8 °F /  4.9 °C 36.4 °F /  2.4 °C 29.58 in /  1001.6 hPa SW 8.0 mph /  12.9 km/h 13.0 mph /  20.9 km/h 84 % 0.00 in /  0 mm 11 W/m2
08:17 41.0 °F /  5 °C 36.5 °F /  2.5 °C 29.58 in /  1001.6 hPa SW 9.0 mph /  14.5 km/h 13.0 mph /  20.9 km/h 84 % 0.00 in /  0 mm 14 W/m2
08:22 41.2 °F /  5.1 °C 36.7 °F /  2.6 °C 29.58 in /  1001.6 hPa SW 12.0 mph /  19.3 km/h 21.0 mph /  33.8 km/h 84 % 0.00 in /  0 mm 21 W/m2
08:27 41.4 °F /  5.2 °C 36.9 °F /  2.7 °C 29.58 in /  1001.6 hPa SW 10.0 mph /  16.1 km/h 14.0 mph /  22.5 km/h 84 % 0.00 in /  0 mm 25 W/m2
08:32 41.4 °F /  5.2 °C 36.9 °F /  2.7 °C 29.58 in /  1001.6 hPa SW 8.0 mph /  12.9 km/h 12.0 mph /  19.3 km/h 84 % 0.00 in /  0 mm 28 W/m2
08:37 41.4 °F /  5.2 °C 36.9 °F /  2.7 °C 29.58 in /  1001.6 hPa SW 10.0 mph /  16.1 km/h 18.0 mph /  29 km/h 84 % 0.00 in /  0 mm 30 W/m2
08:42 41.5 °F /  5.3 °C 36.8 °F /  2.7 °C 29.58 in /  1001.6 hPa WSW 10.0 mph /  16.1 km/h 18.0 mph /  29 km/h 83 % 0.00 in /  0 mm 33 W/m2
08:47 41.5 °F /  5.3 °C 37.1 °F /  2.8 °C 29.58 in /  1001.6 hPa SW 7.0 mph /  11.3 km/h 10.0 mph /  16.1 km/h 84 % 0.00 in /  0 mm 30 W/m2
08:52 41.5 °F /  5.3 °C 37.1 °F /  2.8 °C 29.58 in /  1001.6 hPa SW 8.0 mph /  12.9 km/h 12.0 mph /  19.3 km/h 84 % 0.00 in /  0 mm 28 W/m2
08:57 41.5 °F /  5.3 °C 37.1 °F /  2.8 °C 29.58 in /  1001.6 hPa SW 13.0 mph /  20.9 km/h 23.0 mph /  37 km/h 84 % 0.00 in /  0 mm 30 W/m2
09:02 41.7 °F /  5.4 °C 37.2 °F /  2.9 °C 29.58 in /  1001.6 hPa SW 6.0 mph /  9.7 km/h 11.0 mph /  17.7 km/h 84 % 0.00 in /  0 mm 32 W/m2
09:07 41.7 °F /  5.4 °C 37.2 °F /  2.9 °C 29.58 in /  1001.6 hPa WSW 6.0 mph /  9.7 km/h 10.0 mph /  16.1 km/h 84 % 0.00 in /  0 mm 30 W/m2
09:13 41.9 °F /  5.5 °C 37.4 °F /  3 °C 29.58 in /  1001.6 hPa SW 8.0 mph /  12.9 km/h 12.0 mph /  19.3 km/h 84 % 0.00 in /  0 mm 30 W/m2
09:17 41.9 °F /  5.5 °C 37.4 °F /  3 °C 29.58 in /  1001.6 hPa SW 7.0 mph /  11.3 km/h 12.0 mph /  19.3 km/h 84 % 0.00 in /  0 mm 33 W/m2
09:23 42.1 °F /  5.6 °C 37.3 °F /  2.9 °C 29.58 in /  1001.6 hPa WSW 9.0 mph /  14.5 km/h 18.0 mph /  29 km/h 83 % 0.00 in /  0 mm 35 W/m2
09:28 42.1 °F /  5.6 °C 37.3 °F /  2.9 °C 29.58 in /  1001.6 hPa SW 9.0 mph /  14.5 km/h 13.0 mph /  20.9 km/h 83 % 0.00 in /  0 mm 40 W/m2
09:33 42.3 °F /  5.7 °C 37.5 °F /  3.1 °C 29.59 in /  1001.9 hPa SW 9.0 mph /  14.5 km/h 16.0 mph /  25.7 km/h 83 % 0.00 in /  0 mm 151 W/m2
09:38 42.4 °F /  5.8 °C 37.6 °F /  3.1 °C 29.59 in /  1001.9 hPa SW 11.0 mph /  17.7 km/h 16.0 mph /  25.7 km/h 83 % 0.00 in /  0 mm 155 W/m2
09:43 42.8 °F /  6 °C 38.0 °F /  3.3 °C 29.59 in /  1001.9 hPa SW 7.0 mph /  11.3 km/h 15.0 mph /  24.1 km/h 83 % 0.00 in /  0 mm 171 W/m2
09:48 43.0 °F /  6.1 °C 37.9 °F /  3.3 °C 29.59 in /  1001.9 hPa SW 11.0 mph /  17.7 km/h 19.0 mph /  30.6 km/h 82 % 0.00 in /  0 mm 176 W/m2
09:53 43.2 °F /  6.2 °C 37.7 °F /  3.2 °C 29.59 in /  1001.9 hPa SW 10.0 mph /  16.1 km/h 16.0 mph /  25.7 km/h 81 % 0.00 in /  0 mm 193 W/m2
09:58 43.3 °F /  6.3 °C 37.9 °F /  3.3 °C 29.60 in /  1002.3 hPa SW 7.0 mph /  11.3 km/h 13.0 mph /  20.9 km/h 81 % 0.00 in /  0 mm 218 W/m2
10:03 43.5 °F /  6.4 °C 38.1 °F /  3.4 °C 29.59 in /  1001.9 hPa WSW 9.0 mph /  14.5 km/h 14.0 mph /  22.5 km/h 81 % 0.00 in /  0 mm 234 W/m2
10:08 43.7 °F /  6.5 °C 37.9 °F /  3.3 °C 29.60 in /  1002.3 hPa SW 7.0 mph /  11.3 km/h 12.0 mph /  19.3 km/h 80 % 0.00 in /  0 mm 250 W/m2
10:13 44.1 °F /  6.7 °C 38.3 °F /  3.5 °C 29.60 in /  1002.3 hPa WSW 11.0 mph /  17.7 km/h 16.0 mph /  25.7 km/h 80 % 0.00 in /  0 mm 271 W/m2
10:18 44.2 °F /  6.8 °C 38.5 °F /  3.6 °C 29.59 in /  1001.9 hPa SW 10.0 mph /  16.1 km/h 20.0 mph /  32.2 km/h 80 % 0.00 in /  0 mm 287 W/m2
10:23 44.4 °F /  6.9 °C 38.3 °F /  3.5 °C 29.59 in /  1001.9 hPa SW 13.0 mph /  20.9 km/h 22.0 mph /  35.4 km/h 79 % 0.00 in /  0 mm 304 W/m2
10:28 44.6 °F /  7 °C 38.5 °F /  3.6 °C 29.60 in /  1002.3 hPa SW 11.0 mph /  17.7 km/h 21.0 mph /  33.8 km/h 79 % 0.00 in /  0 mm 278 W/m2
10:33 44.8 °F /  7.1 °C 38.7 °F /  3.7 °C 29.59 in /  1001.9 hPa SW 5.0 mph /  8 km/h 10.0 mph /  16.1 km/h 79 % 0.00 in /  0 mm 287 W/m2
10:38 45.1 °F /  7.3 °C 39.0 °F /  3.9 °C 29.59 in /  1001.9 hPa SSW 6.0 mph /  9.7 km/h 11.0 mph /  17.7 km/h 79 % 0.00 in /  0 mm 264 W/m2
10:43 45.3 °F /  7.4 °C 38.9 °F /  3.8 °C 29.60 in /  1002.3 hPa SSW 6.0 mph /  9.7 km/h 13.0 mph /  20.9 km/h 78 % 0.00 in /  0 mm 297 W/m2
10:48 45.3 °F /  7.4 °C 38.9 °F /  3.8 °C 29.60 in /  1002.3 hPa WSW 10.0 mph /  16.1 km/h 16.0 mph /  25.7 km/h 78 % 0.00 in /  0 mm 330 W/m2
10:53 45.7 °F /  7.6 °C 38.9 °F /  3.8 °C 29.60 in /  1002.3 hPa SW 8.0 mph /  12.9 km/h 16.0 mph /  25.7 km/h 77 % 0.00 in /  0 mm 364 W/m2
10:58 45.9 °F /  7.7 °C 39.1 °F /  3.9 °C 29.60 in /  1002.3 hPa SSW 11.0 mph /  17.7 km/h 18.0 mph /  29 km/h 77 % 0.00 in /  0 mm 244 W/m2
11:03 45.9 °F /  7.7 °C 39.1 °F /  3.9 °C 29.60 in /  1002.3 hPa SW 12.0 mph /  19.3 km/h 19.0 mph /  30.6 km/h 77 % 0.00 in /  0 mm 271 W/m2
11:08 45.9 °F /  7.7 °C 39.1 °F /  3.9 °C 29.59 in /  1001.9 hPa SW 15.0 mph /  24.1 km/h 22.0 mph /  35.4 km/h 77 % 0.00 in /  0 mm 353 W/m2
11:13 46.0 °F /  7.8 °C 39.2 °F /  4 °C 29.59 in /  1001.9 hPa WSW 14.0 mph /  22.5 km/h 22.0 mph /  35.4 km/h 77 % 0.00 in /  0 mm 383 W/m2
11:18 46.4 °F /  8 °C 39.2 °F /  4 °C 29.59 in /  1001.9 hPa SW 13.0 mph /  20.9 km/h 21.0 mph /  33.8 km/h 76 % 0.00 in /  0 mm 408 W/m2
11:23 46.6 °F /  8.1 °C 39.1 °F /  3.9 °C 29.59 in /  1001.9 hPa SW 11.0 mph /  17.7 km/h 21.0 mph /  33.8 km/h 75 % 0.00 in /  0 mm 311 W/m2
11:28 46.6 °F /  8.1 °C 39.1 °F /  3.9 °C 29.59 in /  1001.9 hPa SW 15.0 mph /  24.1 km/h 26.0 mph /  41.8 km/h 75 % 0.00 in /  0 mm 77 W/m2
11:33 46.2 °F /  7.9 °C 38.7 °F /  3.7 °C 29.59 in /  1001.9 hPa SW 14.0 mph /  22.5 km/h 21.0 mph /  33.8 km/h 75 % 0.00 in /  0 mm 104 W/m2
11:38 46.0 °F /  7.8 °C 38.9 °F /  3.8 °C 29.59 in /  1001.9 hPa SW 12.0 mph /  19.3 km/h 18.0 mph /  29 km/h 76 % 0.00 in /  0 mm 327 W/m2
11:43 46.2 °F /  7.9 °C 39.1 °F /  3.9 °C 29.59 in /  1001.9 hPa SW 10.0 mph /  16.1 km/h 18.0 mph /  29 km/h 76 % 0.00 in /  0 mm 332 W/m2
11:48 46.4 °F /  8 °C 38.9 °F /  3.8 °C 29.59 in /  1001.9 hPa SW 15.0 mph /  24.1 km/h 23.0 mph /  37 km/h 75 % 0.00 in /  0 mm 338 W/m2
11:53 46.6 °F /  8.1 °C 39.1 °F /  3.9 °C 29.59 in /  1001.9 hPa SW 9.0 mph /  14.5 km/h 14.0 mph /  22.5 km/h 75 % 0.00 in /  0 mm 325 W/m2
11:58 46.8 °F /  8.2 °C 39.3 °F /  4.1 °C 29.59 in /  1001.9 hPa SW 10.0 mph /  16.1 km/h 15.0 mph /  24.1 km/h 75 % 0.00 in /  0 mm 332 W/m2
12:03 46.8 °F /  8.2 °C 38.9 °F /  3.8 °C 29.59 in /  1001.9 hPa SW 14.0 mph /  22.5 km/h 21.0 mph /  33.8 km/h 74 % 0.00 in /  0 mm 315 W/m2
12:08 46.8 °F /  8.2 °C 39.3 °F /  4.1 °C 29.59 in /  1001.9 hPa SSW 13.0 mph /  20.9 km/h 19.0 mph /  30.6 km/h 75 % 0.00 in /  0 mm 346 W/m2
12:14 46.8 °F /  8.2 °C 38.9 °F /  3.8 °C 29.59 in /  1001.9 hPa SW 11.0 mph /  17.7 km/h 21.0 mph /  33.8 km/h 74 % 0.00 in /  0 mm 336 W/m2
12:19 46.9 °F /  8.3 °C 39.1 °F /  3.9 °C 29.59 in /  1001.9 hPa SSW 11.0 mph /  17.7 km/h 18.0 mph /  29 km/h 74 % 0.00 in /  0 mm 378 W/m2
12:24 47.1 °F /  8.4 °C 39.6 °F /  4.2 °C 29.60 in /  1002.3 hPa SSW 10.0 mph /  16.1 km/h 18.0 mph /  29 km/h 75 % 0.00 in /  0 mm 381 W/m2
12:29 47.1 °F /  8.4 °C 39.3 °F /  4.1 °C 29.61 in /  1002.6 hPa SW 13.0 mph /  20.9 km/h 20.0 mph /  32.2 km/h 74 % 0.00 in /  0 mm 359 W/m2
12:34 46.9 °F /  8.3 °C 39.1 °F /  3.9 °C 29.61 in /  1002.6 hPa SW 9.0 mph /  14.5 km/h 14.0 mph /  22.5 km/h 74 % 0.00 in /  0 mm 243 W/m2
12:39 46.8 °F /  8.2 °C 39.3 °F /  4.1 °C 29.61 in /  1002.6 hPa SW 10.0 mph /  16.1 km/h 20.0 mph /  32.2 km/h 75 % 0.00 in /  0 mm 239 W/m2
12:44 46.8 °F /  8.2 °C 39.3 °F /  4.1 °C 29.61 in /  1002.6 hPa SSW 13.0 mph /  20.9 km/h 22.0 mph /  35.4 km/h 75 % 0.00 in /  0 mm 466 W/m2
12:49 46.8 °F /  8.2 °C 38.9 °F /  3.8 °C 29.61 in /  1002.6 hPa SSW 10.0 mph /  16.1 km/h 14.0 mph /  22.5 km/h 74 % 0.00 in /  0 mm 204 W/m2
12:54 46.8 °F /  8.2 °C 39.3 °F /  4.1 °C 29.60 in /  1002.3 hPa SW 8.0 mph /  12.9 km/h 13.0 mph /  20.9 km/h 75 % 0.00 in /  0 mm 160 W/m2
12:59 46.8 °F /  8.2 °C 38.9 °F /  3.8 °C 29.60 in /  1002.3 hPa SW 9.0 mph /  14.5 km/h 15.0 mph /  24.1 km/h 74 % 0.00 in /  0 mm 97 W/m2
13:04 46.6 °F /  8.1 °C 38.7 °F /  3.7 °C 29.60 in /  1002.3 hPa SSW 6.0 mph /  9.7 km/h 9.0 mph /  14.5 km/h 74 % 0.00 in /  0 mm 77 W/m2
13:09 46.6 °F /  8.1 °C 39.1 °F /  3.9 °C 29.60 in /  1002.3 hPa SSW 8.0 mph /  12.9 km/h 13.0 mph /  20.9 km/h 75 % 0.00 in /  0 mm 91 W/m2
13:14 46.4 °F /  8 °C 38.6 °F /  3.7 °C 29.60 in /  1002.3 hPa SSW 8.0 mph /  12.9 km/h 12.0 mph /  19.3 km/h 74 % 0.00 in /  0 mm 107 W/m2
13:19 46.4 °F /  8 °C 38.9 °F /  3.8 °C 29.60 in /  1002.3 hPa South 7.0 mph /  11.3 km/h 12.0 mph /  19.3 km/h 75 % 0.00 in /  0 mm 113 W/m2
13:24 46.4 °F /  8 °C 38.9 °F /  3.8 °C 29.59 in /  1001.9 hPa SSW 7.0 mph /  11.3 km/h 12.0 mph /  19.3 km/h 75 % 0.00 in /  0 mm 90 W/m2
13:29 46.4 °F /  8 °C 38.9 °F /  3.8 °C 29.59 in /  1001.9 hPa SSW 9.0 mph /  14.5 km/h 14.0 mph /  22.5 km/h 75 % 0.00 in /  0 mm 56 W/m2
13:34 46.4 °F /  8 °C 38.9 °F /  3.8 °C 29.60 in /  1002.3 hPa SW 9.0 mph /  14.5 km/h 16.0 mph /  25.7 km/h 75 % 0.00 in /  0 mm 67 W/m2
13:39 46.2 °F /  7.9 °C 38.7 °F /  3.7 °C 29.59 in /  1001.9 hPa SSW 12.0 mph /  19.3 km/h 20.0 mph /  32.2 km/h 75 % 0.00 in /  0 mm 63 W/m2
13:44 46.2 °F /  7.9 °C 38.7 °F /  3.7 °C 29.59 in /  1001.9 hPa SSW 8.0 mph /  12.9 km/h 14.0 mph /  22.5 km/h 75 % 0.00 in /  0 mm 74 W/m2
13:49 46.0 °F /  7.8 °C 38.6 °F /  3.7 °C 29.59 in /  1001.9 hPa SW 9.0 mph /  14.5 km/h 13.0 mph /  20.9 km/h 75 % 0.00 in /  0 mm 67 W/m2
13:54 46.2 °F /  7.9 °C 39.1 °F /  3.9 °C 29.59 in /  1001.9 hPa SSW 5.0 mph /  8 km/h 9.0 mph /  14.5 km/h 76 % 0.00 in /  0 mm 76 W/m2
13:59 46.2 °F /  7.9 °C 39.1 °F /  3.9 °C 29.59 in /  1001.9 hPa SW 8.0 mph /  12.9 km/h 15.0 mph /  24.1 km/h 76 % 0.00 in /  0 mm 69 W/m2
14:04 46.2 °F /  7.9 °C 39.1 °F /  3.9 °C 29.59 in /  1001.9 hPa South 10.0 mph /  16.1 km/h 18.0 mph /  29 km/h 76 % 0.00 in /  0 mm 109 W/m2
14:09 46.2 °F /  7.9 °C 38.4 °F /  3.6 °C 29.58 in /  1001.6 hPa SW 13.0 mph /  20.9 km/h 20.0 mph /  32.2 km/h 74 % 0.00 in /  0 mm 244 W/m2
14:14 46.4 °F /  8 °C 38.9 °F /  3.8 °C 29.58 in /  1001.6 hPa SW 9.0 mph /  14.5 km/h 13.0 mph /  20.9 km/h 75 % 0.00 in /  0 mm 144 W/m2
14:19 46.6 °F /  8.1 °C 38.7 °F /  3.7 °C 29.58 in /  1001.6 hPa SSW 10.0 mph /  16.1 km/h 16.0 mph /  25.7 km/h 74 % 0.00 in /  0 mm 148 W/m2
14:24 46.6 °F /  8.1 °C 38.7 °F /  3.7 °C 29.58 in /  1001.6 hPa SSW 8.0 mph /  12.9 km/h 12.0 mph /  19.3 km/h 74 % 0.00 in /  0 mm 121 W/m2
14:29 46.6 °F /  8.1 °C 38.4 °F /  3.6 °C 29.57 in /  1001.2 hPa South 18.0 mph /  29 km/h 27.0 mph /  43.5 km/h 73 % 0.00 in /  0 mm 98 W/m2
14:34 46.6 °F /  8.1 °C 38.4 °F /  3.6 °C 29.57 in /  1001.2 hPa South 13.0 mph /  20.9 km/h 20.0 mph /  32.2 km/h 73 % 0.00 in /  0 mm 56 W/m2
14:39 46.2 °F /  7.9 °C 38.4 °F /  3.6 °C 29.57 in /  1001.2 hPa SSW 8.0 mph /  12.9 km/h 14.0 mph /  22.5 km/h 74 % 0.00 in /  0 mm 56 W/m2
14:45 46.0 °F /  7.8 °C 38.6 °F /  3.7 °C 29.58 in /  1001.6 hPa SSW 8.0 mph /  12.9 km/h 12.0 mph /  19.3 km/h 75 % 0.00 in /  0 mm 56 W/m2
14:49 45.9 °F /  7.7 °C 38.4 °F /  3.6 °C 29.58 in /  1001.6 hPa SW 11.0 mph /  17.7 km/h 18.0 mph /  29 km/h 75 % 0.00 in /  0 mm 46 W/m2
14:54 45.9 °F /  7.7 °C 38.7 °F /  3.7 °C 29.58 in /  1001.6 hPa SSW 7.0 mph /  11.3 km/h 11.0 mph /  17.7 km/h 76 % 0.00 in /  0 mm 51 W/m2
15:00 45.7 °F /  7.6 °C 38.5 °F /  3.6 °C 29.58 in /  1001.6 hPa SW 9.0 mph /  14.5 km/h 14.0 mph /  22.5 km/h 76 % 0.00 in /  0 mm 58 W/m2
15:05 45.7 °F /  7.6 °C 38.5 °F /  3.6 °C 29.58 in /  1001.6 hPa South 10.0 mph /  16.1 km/h 15.0 mph /  24.1 km/h 76 % 0.00 in /  0 mm 70 W/m2
15:10 45.7 °F /  7.6 °C 38.9 °F /  3.8 °C 29.58 in /  1001.6 hPa South 9.0 mph /  14.5 km/h 13.0 mph /  20.9 km/h 77 % 0.00 in /  0 mm 120 W/m2
15:15 45.7 °F /  7.6 °C 38.9 °F /  3.8 °C 29.58 in /  1001.6 hPa South 7.0 mph /  11.3 km/h 12.0 mph /  19.3 km/h 77 % 0.00 in /  0 mm 88 W/m2
15:20 45.7 °F /  7.6 °C 38.9 °F /  3.8 °C 29.58 in /  1001.6 hPa SSW 9.0 mph /  14.5 km/h 14.0 mph /  22.5 km/h 77 % 0.00 in /  0 mm 47 W/m2
15:25 45.7 °F /  7.6 °C 38.9 °F /  3.8 °C 29.58 in /  1001.6 hPa South 10.0 mph /  16.1 km/h 15.0 mph /  24.1 km/h 77 % 0.00 in /  0 mm 32 W/m2
15:30 45.7 °F /  7.6 °C 38.9 °F /  3.8 °C 29.58 in /  1001.6 hPa SSW 8.0 mph /  12.9 km/h 18.0 mph /  29 km/h 77 % 0.00 in /  0 mm 16 W/m2
15:35 45.7 °F /  7.6 °C 39.2 °F /  4 °C 29.59 in /  1001.9 hPa SW 9.0 mph /  14.5 km/h 15.0 mph /  24.1 km/h 78 % 0.00 in /  0 mm 21 W/m2
15:40 45.3 °F /  7.4 °C 39.2 °F /  4 °C 29.59 in /  1001.9 hPa SW 14.0 mph /  22.5 km/h 26.0 mph /  41.8 km/h 79 % 0.00 in /  0 mm 63 W/m2
15:45 45.0 °F /  7.2 °C 39.5 °F /  4.2 °C 29.59 in /  1001.9 hPa SSW 12.0 mph /  19.3 km/h 23.0 mph /  37 km/h 81 % 0.00 in /  0 mm 49 W/m2
15:50 44.4 °F /  6.9 °C 39.6 °F /  4.2 °C 29.59 in /  1001.9 hPa SW 10.0 mph /  16.1 km/h 16.0 mph /  25.7 km/h 83 % 0.00 in /  0 mm 40 W/m2
15:55 44.1 °F /  6.7 °C 39.2 °F /  4 °C 29.59 in /  1001.9 hPa SW 11.0 mph /  17.7 km/h 14.0 mph /  22.5 km/h 83 % 0.00 in /  0 mm 42 W/m2
16:00 43.9 °F /  6.6 °C 39.1 °F /  3.9 °C 29.58 in /  1001.6 hPa SW 8.0 mph /  12.9 km/h 10.0 mph /  16.1 km/h 83 % 0.00 in /  0 mm 39 W/m2
16:05 43.7 °F /  6.5 °C 39.2 °F /  4 °C 29.59 in /  1001.9 hPa SSW 9.0 mph /  14.5 km/h 14.0 mph /  22.5 km/h 84 % 0.00 in /  0 mm 30 W/m2
16:10 43.5 °F /  6.4 °C 39.0 °F /  3.9 °C 29.59 in /  1001.9 hPa SSW 8.0 mph /  12.9 km/h 13.0 mph /  20.9 km/h 84 % 0.00 in /  0 mm 16 W/m2
16:15 43.3 °F /  6.3 °C 38.8 °F /  3.8 °C 29.59 in /  1001.9 hPa SSW 11.0 mph /  17.7 km/h 15.0 mph /  24.1 km/h 84 % 0.00 in /  0 mm 7 W/m2
16:20 43.3 °F /  6.3 °C 38.8 °F /  3.8 °C 29.59 in /  1001.9 hPa SSW 10.0 mph /  16.1 km/h 15.0 mph /  24.1 km/h 84 % 0.00 in /  0 mm 7 W/m2
16:25 43.2 °F /  6.2 °C 38.7 °F /  3.7 °C 29.59 in /  1001.9 hPa SSW 11.0 mph /  17.7 km/h 19.0 mph /  30.6 km/h 84 % 0.00 in /  0 mm 5 W/m2
16:30 43.0 °F /  6.1 °C 38.5 °F /  3.6 °C 29.59 in /  1001.9 hPa SW 11.0 mph /  17.7 km/h 15.0 mph /  24.1 km/h 84 % 0.00 in /  0 mm 5 W/m2
16:35 43.0 °F /  6.1 °C 38.5 °F /  3.6 °C 29.58 in /  1001.6 hPa SSW 12.0 mph /  19.3 km/h 19.0 mph /  30.6 km/h 84 % 0.00 in /  0 mm 0 W/m2
16:40 42.8 °F /  6 °C 38.6 °F /  3.7 °C 29.58 in /  1001.6 hPa SSW 10.0 mph /  16.1 km/h 16.0 mph /  25.7 km/h 85 % 0.00 in /  0 mm 0 W/m2
16:45 42.6 °F /  5.9 °C 38.4 °F /  3.6 °C 29.58 in /  1001.6 hPa SSW 9.0 mph /  14.5 km/h 14.0 mph /  22.5 km/h 85 % 0.00 in /  0 mm 0 W/m2
16:50 42.6 °F /  5.9 °C 38.7 °F /  3.7 °C 29.58 in /  1001.6 hPa SSW 8.0 mph /  12.9 km/h 13.0 mph /  20.9 km/h 86 % 0.00 in /  0 mm 0 W/m2
16:55 42.4 °F /  5.8 °C 38.5 °F /  3.6 °C 29.58 in /  1001.6 hPa SW 6.0 mph /  9.7 km/h 9.0 mph /  14.5 km/h 86 % 0.00 in /  0 mm 0 W/m2
17:00 42.4 °F /  5.8 °C 38.5 °F /  3.6 °C 29.59 in /  1001.9 hPa SW 6.0 mph /  9.7 km/h 9.0 mph /  14.5 km/h 86 % 0.00 in /  0 mm 0 W/m2
17:05 42.4 °F /  5.8 °C 38.8 °F /  3.8 °C 29.59 in /  1001.9 hPa SSW 6.0 mph /  9.7 km/h 9.0 mph /  14.5 km/h 87 % 0.00 in /  0 mm 0 W/m2
17:10 42.4 °F /  5.8 °C 38.8 °F /  3.8 °C 29.59 in /  1001.9 hPa SW 4.0 mph /  6.4 km/h 9.0 mph /  14.5 km/h 87 % 0.00 in /  0 mm 0 W/m2
17:14 42.4 °F /  5.8 °C 39.1 °F /  3.9 °C 29.59 in /  1001.9 hPa SW 5.0 mph /  8 km/h 9.0 mph /  14.5 km/h 88 % 0.00 in /  0 mm 0 W/m2
17:19 42.4 °F /  5.8 °C 39.1 °F /  3.9 °C 29.60 in /  1002.3 hPa South 2.0 mph /  3.2 km/h 5.0 mph /  8 km/h 88 % 0.00 in /  0 mm 0 W/m2
17:24 42.4 °F /  5.8 °C 39.1 °F /  3.9 °C 29.60 in /  1002.3 hPa SW 4.0 mph /  6.4 km/h 8.0 mph /  12.9 km/h 88 % 0.00 in /  0 mm 0 W/m2
17:29 42.6 °F /  5.9 °C 39.3 °F /  4.1 °C 29.60 in /  1002.3 hPa SW 2.0 mph /  3.2 km/h 5.0 mph /  8 km/h 88 % 0.00 in /  0 mm 0 W/m2
17:34 42.6 °F /  5.9 °C 39.3 °F /  4.1 °C 29.60 in /  1002.3 hPa SSW 4.0 mph /  6.4 km/h 8.0 mph /  12.9 km/h 88 % 0.00 in /  0 mm 0 W/m2
17:39 42.6 °F /  5.9 °C 39.3 °F /  4.1 °C 29.60 in /  1002.3 hPa SSW 4.0 mph /  6.4 km/h 8.0 mph /  12.9 km/h 88 % 0.00 in /  0 mm 0 W/m2
17:44 42.8 °F /  6 °C 39.5 °F /  4.2 °C 29.60 in /  1002.3 hPa SSW 6.0 mph /  9.7 km/h 9.0 mph /  14.5 km/h 88 % 0.00 in /  0 mm 0 W/m2
17:49 42.8 °F /  6 °C 39.5 °F /  4.2 °C 29.61 in /  1002.6 hPa SW 5.0 mph /  8 km/h 8.0 mph /  12.9 km/h 88 % 0.00 in /  0 mm 0 W/m2
17:54 42.8 °F /  6 °C 39.2 °F /  4 °C 29.61 in /  1002.6 hPa WSW 1.0 mph /  1.6 km/h 4.0 mph /  6.4 km/h 87 % 0.00 in /  0 mm 0 W/m2
17:59 42.8 °F /  6 °C 39.2 °F /  4 °C 29.61 in /  1002.6 hPa WSW 2.0 mph /  3.2 km/h 6.0 mph /  9.7 km/h 87 % 0.00 in /  0 mm 0 W/m2
18:04 43.0 °F /  6.1 °C 39.4 °F /  4.1 °C 29.62 in /  1002.9 hPa SW 2.0 mph /  3.2 km/h 5.0 mph /  8 km/h 87 % 0.00 in /  0 mm 0 W/m2
18:09 43.0 °F /  6.1 °C 39.4 °F /  4.1 °C 29.62 in /  1002.9 hPa SW 3.0 mph /  4.8 km/h 7.0 mph /  11.3 km/h 87 % 0.00 in /  0 mm 0 W/m2
18:14 43.0 °F /  6.1 °C 39.4 °F /  4.1 °C 29.62 in /  1002.9 hPa SW 5.0 mph /  8 km/h 7.0 mph /  11.3 km/h 87 % 0.00 in /  0 mm 0 W/m2
18:19 43.0 °F /  6.1 °C 39.4 °F /  4.1 °C 29.62 in /  1002.9 hPa SW 2.0 mph /  3.2 km/h 5.0 mph /  8 km/h 87 % 0.00 in /  0 mm 0 W/m2
18:24 42.8 °F /  6 °C 39.2 °F /  4 °C 29.62 in /  1002.9 hPa SW 2.0 mph /  3.2 km/h 5.0 mph /  8 km/h 87 % 0.00 in /  0 mm 0 W/m2
18:29 42.8 °F /  6 °C 39.2 °F /  4 °C 29.62 in /  1002.9 hPa Calm   3.0 mph /  4.8 km/h 87 % 0.00 in /  0 mm 0 W/m2
18:34 42.6 °F /  5.9 °C 39.0 °F /  3.9 °C 29.62 in /  1002.9 hPa SSW 2.0 mph /  3.2 km/h 5.0 mph /  8 km/h 87 % 0.00 in /  0 mm 0 W/m2
18:39 42.4 °F /  5.8 °C 38.8 °F /  3.8 °C 29.63 in /  1003.3 hPa Calm   2.0 mph /  3.2 km/h 87 % 0.00 in /  0 mm 0 W/m2
18:44 42.4 °F /  5.8 °C 38.5 °F /  3.6 °C 29.64 in /  1003.6 hPa Calm   3.0 mph /  4.8 km/h 86 % 0.00 in /  0 mm 0 W/m2
18:49 42.3 °F /  5.7 °C 38.7 °F /  3.7 °C 29.64 in /  1003.6 hPa SW 1.0 mph /  1.6 km/h 4.0 mph /  6.4 km/h 87 % 0.00 in /  0 mm 0 W/m2
18:54 42.3 °F /  5.7 °C 38.7 °F /  3.7 °C 29.64 in /  1003.6 hPa SSE 4.0 mph /  6.4 km/h 5.0 mph /  8 km/h 87 % 0.00 in /  0 mm 0 W/m2
18:59 42.3 °F /  5.7 °C 38.7 °F /  3.7 °C 29.64 in /  1003.6 hPa SSE 6.0 mph /  9.7 km/h 8.0 mph /  12.9 km/h 87 % 0.00 in /  0 mm 0 W/m2
19:04 42.3 °F /  5.7 °C 38.7 °F /  3.7 °C 29.64 in /  1003.6 hPa SE 4.0 mph /  6.4 km/h 6.0 mph /  9.7 km/h 87 % 0.00 in /  0 mm 0 W/m2
19:09 42.3 °F /  5.7 °C 38.7 °F /  3.7 °C 29.64 in /  1003.6 hPa SSE 5.0 mph /  8 km/h 8.0 mph /  12.9 km/h 87 % 0.00 in /  0 mm 0 W/m2
19:14 42.3 °F /  5.7 °C 38.7 °F /  3.7 °C 29.64 in /  1003.6 hPa SSE 7.0 mph /  11.3 km/h 10.0 mph /  16.1 km/h 87 % 0.00 in /  0 mm 0 W/m2
19:19 42.3 °F /  5.7 °C 38.7 °F /  3.7 °C 29.64 in /  1003.6 hPa South 5.0 mph /  8 km/h 8.0 mph /  12.9 km/h 87 % 0.00 in /  0 mm 0 W/m2
19:24 42.3 °F /  5.7 °C 38.7 °F /  3.7 °C 29.65 in /  1003.9 hPa South 6.0 mph /  9.7 km/h 9.0 mph /  14.5 km/h 87 % 0.00 in /  0 mm 0 W/m2
19:30 42.3 °F /  5.7 °C 38.7 °F /  3.7 °C 29.65 in /  1003.9 hPa South 6.0 mph /  9.7 km/h 10.0 mph /  16.1 km/h 87 % 0.00 in /  0 mm 0 W/m2
19:34 42.3 °F /  5.7 °C 38.7 °F /  3.7 °C 29.65 in /  1003.9 hPa SSW 6.0 mph /  9.7 km/h 10.0 mph /  16.1 km/h 87 % 0.00 in /  0 mm 0 W/m2
19:40 42.3 °F /  5.7 °C 38.7 °F /  3.7 °C 29.65 in /  1003.9 hPa SSW 4.0 mph /  6.4 km/h 7.0 mph /  11.3 km/h 87 % 0.00 in /  0 mm 0 W/m2
19:45 42.3 °F /  5.7 °C 38.7 °F /  3.7 °C 29.66 in /  1004.3 hPa SSW 4.0 mph /  6.4 km/h 7.0 mph /  11.3 km/h 87 % 0.00 in /  0 mm 0 W/m2
19:50 42.1 °F /  5.6 °C 38.5 °F /  3.6 °C 29.66 in /  1004.3 hPa SSW 4.0 mph /  6.4 km/h 10.0 mph /  16.1 km/h 87 % 0.00 in /  0 mm 0 W/m2
19:55 42.1 °F /  5.6 °C 38.5 °F /  3.6 °C 29.66 in /  1004.3 hPa SW 5.0 mph /  8 km/h 9.0 mph /  14.5 km/h 87 % 0.00 in /  0 mm 0 W/m2
20:00 41.9 °F /  5.5 °C 38.3 °F /  3.5 °C 29.66 in /  1004.3 hPa SW 6.0 mph /  9.7 km/h 8.0 mph /  12.9 km/h 87 % 0.00 in /  0 mm 0 W/m2
20:05 41.7 °F /  5.4 °C 38.1 °F /  3.4 °C 29.66 in /  1004.3 hPa SSW 4.0 mph /  6.4 km/h 6.0 mph /  9.7 km/h 87 % 0.00 in /  0 mm 0 W/m2
20:10 41.5 °F /  5.3 °C 38.0 °F /  3.3 °C 29.66 in /  1004.3 hPa SW 5.0 mph /  8 km/h 8.0 mph /  12.9 km/h 87 % 0.00 in /  0 mm 0 W/m2
20:15 41.5 °F /  5.3 °C 38.3 °F /  3.5 °C 29.66 in /  1004.3 hPa SW 2.0 mph /  3.2 km/h 5.0 mph /  8 km/h 88 % 0.00 in /  0 mm 0 W/m2
20:20 41.4 °F /  5.2 °C 38.1 °F /  3.4 °C 29.66 in /  1004.3 hPa SW 2.0 mph /  3.2 km/h 4.0 mph /  6.4 km/h 88 % 0.00 in /  0 mm 0 W/m2
20:25 41.2 °F /  5.1 °C 37.9 °F /  3.3 °C 29.66 in /  1004.3 hPa SW 4.0 mph /  6.4 km/h 6.0 mph /  9.7 km/h 88 % 0.00 in /  0 mm 0 W/m2
20:30 41.2 °F /  5.1 °C 37.9 °F /  3.3 °C 29.66 in /  1004.3 hPa WSW 2.0 mph /  3.2 km/h 5.0 mph /  8 km/h 88 % 0.00 in /  0 mm 0 W/m2
20:35 40.8 °F /  4.9 °C 37.5 °F /  3.1 °C 29.67 in /  1004.6 hPa SW 4.0 mph /  6.4 km/h 8.0 mph /  12.9 km/h 88 % 0.00 in /  0 mm 0 W/m2
20:40 40.8 °F /  4.9 °C 37.5 °F /  3.1 °C 29.66 in /  1004.3 hPa Calm   1.0 mph /  1.6 km/h 88 % 0.00 in /  0 mm 0 W/m2
20:45 40.6 °F /  4.8 °C 37.4 °F /  3 °C 29.67 in /  1004.6 hPa Calm     88 % 0.00 in /  0 mm 0 W/m2
20:50 40.5 °F /  4.7 °C 37.2 °F /  2.9 °C 29.67 in /  1004.6 hPa Calm   2.0 mph /  3.2 km/h 88 % 0.00 in /  0 mm 0 W/m2
20:55 40.1 °F /  4.5 °C 36.8 °F /  2.7 °C 29.67 in /  1004.6 hPa SW 1.0 mph /  1.6 km/h 3.0 mph /  4.8 km/h 88 % 0.00 in /  0 mm 0 W/m2
21:00 39.9 °F /  4.4 °C 36.9 °F /  2.7 °C 29.67 in /  1004.6 hPa SW 1.0 mph /  1.6 km/h 2.0 mph /  3.2 km/h 89 % 0.00 in /  0 mm 0 W/m2
21:05 39.7 °F /  4.3 °C 36.8 °F /  2.7 °C 29.67 in /  1004.6 hPa Calm   1.0 mph /  1.6 km/h 89 % 0.00 in /  0 mm 0 W/m2
21:10 39.6 °F /  4.2 °C 36.6 °F /  2.6 °C 29.68 in /  1005 hPa Calm     89 % 0.00 in /  0 mm 0 W/m2
21:15 39.2 °F /  4 °C 36.2 °F /  2.3 °C 29.68 in /  1005 hPa Calm   3.0 mph /  4.8 km/h 89 % 0.00 in /  0 mm 0 W/m2
21:20 39.0 °F /  3.9 °C 36.3 °F /  2.4 °C 29.68 in /  1005 hPa SSW 1.0 mph /  1.6 km/h 2.0 mph /  3.2 km/h 90 % 0.00 in /  0 mm 0 W/m2
21:25 38.8 °F /  3.8 °C 36.2 °F /  2.3 °C 29.68 in /  1005 hPa Calm   1.0 mph /  1.6 km/h 90 % 0.00 in /  0 mm 0 W/m2
21:30 38.8 °F /  3.8 °C 36.2 °F /  2.3 °C 29.68 in /  1005 hPa Calm     90 % 0.00 in /  0 mm 0 W/m2
21:35 38.7 °F /  3.7 °C 36.0 °F /  2.2 °C 29.68 in /  1005 hPa Calm   1.0 mph /  1.6 km/h 90 % 0.00 in /  0 mm 0 W/m2
21:40 38.5 °F /  3.6 °C 35.8 °F /  2.1 °C 29.69 in /  1005.3 hPa Calm   2.0 mph /  3.2 km/h 90 % 0.00 in /  0 mm 0 W/m2
21:45 38.5 °F /  3.6 °C 36.1 °F /  2.3 °C 29.69 in /  1005.3 hPa Calm     91 % 0.00 in /  0 mm 0 W/m2
21:50 38.1 °F /  3.4 °C 35.7 °F /  2.1 °C 29.69 in /  1005.3 hPa Calm     91 % 0.00 in /  0 mm 0 W/m2
21:55 38.1 °F /  3.4 °C 35.7 °F /  2.1 °C 29.70 in /  1005.6 hPa Calm     91 % 0.00 in /  0 mm 0 W/m2
22:00 37.9 °F /  3.3 °C 35.5 °F /  1.9 °C 29.70 in /  1005.6 hPa Calm     91 % 0.00 in /  0 mm 0 W/m2
22:05 37.9 °F /  3.3 °C 35.5 °F /  1.9 °C 29.71 in /  1006 hPa Calm     91 % 0.00 in /  0 mm 0 W/m2
22:11 37.9 °F /  3.3 °C 35.8 °F /  2.1 °C 29.71 in /  1006 hPa Calm     92 % 0.00 in /  0 mm 0 W/m2
22:16 38.1 °F /  3.4 °C 36.0 °F /  2.2 °C 29.71 in /  1006 hPa Calm     92 % 0.00 in /  0 mm 0 W/m2
22:21 38.1 °F /  3.4 °C 36.0 °F /  2.2 °C 29.71 in /  1006 hPa SSW 1.0 mph /  1.6 km/h 4.0 mph /  6.4 km/h 92 % 0.00 in /  0 mm 0 W/m2
22:26 38.5 °F /  3.6 °C 36.6 °F /  2.6 °C 29.71 in /  1006 hPa Calm   1.0 mph /  1.6 km/h 93 % 0.00 in /  0 mm 0 W/m2
22:31 38.5 °F /  3.6 °C 36.4 °F /  2.4 °C 29.71 in /  1006 hPa Calm     92 % 0.00 in /  0 mm 0 W/m2
22:36 38.1 °F /  3.4 °C 36.0 °F /  2.2 °C 29.72 in /  1006.3 hPa Calm     92 % 0.00 in /  0 mm 0 W/m2
22:41 37.9 °F /  3.3 °C 35.8 °F /  2.1 °C 29.72 in /  1006.3 hPa Calm     92 % 0.00 in /  0 mm 0 W/m2
22:46 37.8 °F /  3.2 °C 35.6 °F /  2 °C 29.72 in /  1006.3 hPa Calm     92 % 0.00 in /  0 mm 0 W/m2
22:51 37.8 °F /  3.2 °C 35.6 °F /  2 °C 29.72 in /  1006.3 hPa Calm     92 % 0.00 in /  0 mm 0 W/m2
22:54 37.6 °F /  3.1 °C 35.5 °F /  1.9 °C 29.72 in /  1006.3 hPa Calm     92 % 0.00 in /  0 mm 0 W/m2
22:59 37.2 °F /  2.9 °C 35.1 °F /  1.7 °C 29.72 in /  1006.3 hPa Calm     92 % 0.00 in /  0 mm 0 W/m2
23:04 37.2 °F /  2.9 °C 35.1 °F /  1.7 °C 29.73 in /  1006.7 hPa Calm     92 % 0.00 in /  0 mm 0 W/m2
23:09 37.0 °F /  2.8 °C 34.9 °F /  1.6 °C 29.73 in /  1006.7 hPa Calm     92 % 0.00 in /  0 mm 0 W/m2
23:14 37.0 °F /  2.8 °C 35.2 °F /  1.8 °C 29.73 in /  1006.7 hPa Calm     93 % 0.00 in /  0 mm 0 W/m2
23:19 36.9 °F /  2.7 °C 34.8 °F /  1.6 °C 29.73 in /  1006.7 hPa Calm     92 % 0.00 in /  0 mm 0 W/m2
23:24 36.7 °F /  2.6 °C 34.6 °F /  1.4 °C 29.74 in /  1007 hPa Calm     92 % 0.00 in /  0 mm 0 W/m2
23:29 36.3 °F /  2.4 °C 34.5 °F /  1.4 °C 29.74 in /  1007 hPa Calm     93 % 0.00 in /  0 mm 0 W/m2
23:34 36.3 °F /  2.4 °C 34.5 °F /  1.4 °C 29.74 in /  1007 hPa Calm     93 % 0.00 in /  0 mm 0 W/m2
23:39 36.0 °F /  2.2 °C 34.1 °F /  1.2 °C 29.74 in /  1007 hPa Calm   2.0 mph /  3.2 km/h 93 % 0.00 in /  0 mm 0 W/m2
23:44 36.0 °F /  2.2 °C 34.1 °F /  1.2 °C 29.75 in /  1007.3 hPa NNW 1.0 mph /  1.6 km/h 4.0 mph /  6.4 km/h 93 % 0.00 in /  0 mm 0 W/m2
23:49 36.0 °F /  2.2 °C 34.1 °F /  1.2 °C 29.75 in /  1007.3 hPa Calm   1.0 mph /  1.6 km/h 93 % 0.00 in /  0 mm 0 W/m2
23:54 35.8 °F /  2.1 °C 34.0 °F /  1.1 °C 29.75 in /  1007.3 hPa Calm     93 % 0.00 in /  0 mm 0 W/m2
23:59 35.2 °F /  1.8 °C 33.1 °F /  0.6 °C 29.75 in /  1007.3 hPa Calm     92 % 0.00 in /  0 mm 0 W/m2
Delerius-Weather
Compliments of Weather Underground - 2.25 mb

Data updates at regular intervals.